createdAt,value
2018-05-15T00:02:03.059Z,17.00
2018-05-15T00:04:30.515Z,17.00
2018-05-15T00:06:57.994Z,16.90
2018-05-15T00:09:25.465Z,17.00
2018-05-15T00:11:52.952Z,17.00
2018-05-15T00:14:21.207Z,16.90
2018-05-15T00:16:48.712Z,17.00
2018-05-15T00:19:16.174Z,16.90
2018-05-15T00:21:43.818Z,16.90
2018-05-15T00:31:37.144Z,16.90
2018-05-15T00:34:04.616Z,16.90
2018-05-15T00:36:32.885Z,16.80
2018-05-15T00:39:01.150Z,16.80
2018-05-15T00:41:28.614Z,16.80
2018-05-15T00:43:56.849Z,16.80
2018-05-15T00:46:24.314Z,16.80
2018-05-15T00:48:51.806Z,16.70
2018-05-15T00:51:20.028Z,16.80
2018-05-15T00:53:49.963Z,16.70
2018-05-15T00:56:17.419Z,16.70
2018-05-15T00:58:44.904Z,16.70
2018-05-15T01:01:13.135Z,16.60
2018-05-15T01:03:40.606Z,16.60
2018-05-15T01:06:08.182Z,16.50
2018-05-15T01:08:35.656Z,16.60
2018-05-15T01:11:03.918Z,16.50
2018-05-15T01:13:32.217Z,16.50
2018-05-15T01:15:59.635Z,16.50
2018-05-15T01:18:27.210Z,16.60
2018-05-15T01:20:55.430Z,16.50
2018-05-15T01:23:22.979Z,16.50
2018-05-15T01:25:50.445Z,16.50
2018-05-15T01:28:17.905Z,16.50
2018-05-15T01:30:45.409Z,16.50
2018-05-15T01:33:13.671Z,16.50
2018-05-15T01:35:42.511Z,16.40
2018-05-15T01:38:09.953Z,16.40
2018-05-15T01:40:37.446Z,16.40
2018-05-15T01:43:04.890Z,16.40
2018-05-15T01:45:32.410Z,16.40
2018-05-15T01:47:59.887Z,16.30
2018-05-15T01:50:27.323Z,16.40
2018-05-15T01:52:54.805Z,16.40
2018-05-15T01:55:22.366Z,16.30
2018-05-15T01:57:49.815Z,16.30
2018-05-15T02:00:17.293Z,16.30
2018-05-15T02:02:44.777Z,16.20
2018-05-15T02:05:12.240Z,16.20
2018-05-15T02:07:40.463Z,16.10
2018-05-15T02:10:07.959Z,16.10
2018-05-15T02:12:35.464Z,16.20
2018-05-15T02:15:02.934Z,16.10
2018-05-15T02:17:30.400Z,16.00
2018-05-15T02:19:57.856Z,16.10
2018-05-15T02:22:25.469Z,16.00
2018-05-15T02:24:52.922Z,16.00
2018-05-15T02:27:20.362Z,16.00
2018-05-15T02:29:48.589Z,16.00
2018-05-15T02:32:16.031Z,15.90
2018-05-15T02:34:43.507Z,15.90
2018-05-15T02:37:10.955Z,15.80
2018-05-15T02:39:38.431Z,15.70
2018-05-15T02:42:05.870Z,15.80
2018-05-15T02:44:33.418Z,15.70
2018-05-15T02:47:00.865Z,15.70
2018-05-15T02:49:28.333Z,15.80
2018-05-15T02:51:55.778Z,15.80
2018-05-15T02:54:23.242Z,15.70
2018-05-15T02:56:50.682Z,15.70
2018-05-15T02:59:18.232Z,15.70
2018-05-15T03:01:45.681Z,15.70
2018-05-15T03:04:13.146Z,15.70
2018-05-15T03:06:40.654Z,15.60
2018-05-15T03:09:08.124Z,15.60
2018-05-15T03:11:35.648Z,15.60
2018-05-15T03:14:03.042Z,15.60
2018-05-15T03:16:30.621Z,15.50
2018-05-15T03:18:57.965Z,15.50
2018-05-15T03:21:25.431Z,15.40
2018-05-15T03:26:56.079Z,15.40
2018-05-15T03:29:23.598Z,15.40
2018-05-15T03:31:51.208Z,15.40
2018-05-15T03:34:39.037Z,15.40
2018-05-15T03:37:06.594Z,15.40
2018-05-15T03:39:34.117Z,15.50
2018-05-15T03:44:58.907Z,15.30
2018-05-15T03:57:07.480Z,15.30
2018-05-15T03:59:34.990Z,15.30
2018-05-15T04:02:14.372Z,15.30
2018-05-15T04:04:53.976Z,15.30
2018-05-15T04:07:33.251Z,15.30
2018-05-15T04:10:02.515Z,15.30
2018-05-15T04:12:53.991Z,15.30
2018-05-15T04:44:45.829Z,15.40
2018-05-15T04:47:13.304Z,15.30
2018-05-15T04:49:44.617Z,15.40
2018-05-15T04:52:12.122Z,15.40
2018-05-15T04:54:40.379Z,15.40
2018-05-15T04:57:08.082Z,15.40
2018-05-15T04:59:36.539Z,15.40
2018-05-15T05:02:04.212Z,15.40
2018-05-15T05:04:32.185Z,15.40
2018-05-15T05:06:59.647Z,15.50
2018-05-15T05:09:27.120Z,15.50
2018-05-15T05:11:55.371Z,15.50
2018-05-15T05:14:22.811Z,15.50
2018-05-15T05:16:50.364Z,15.50
2018-05-15T05:19:17.810Z,15.50
2018-05-15T05:24:38.133Z,15.60
2018-05-15T05:27:05.621Z,15.60
2018-05-15T05:29:33.120Z,15.70
2018-05-15T05:32:01.317Z,15.80
2018-05-15T05:34:28.783Z,15.90
2018-05-15T05:37:11.375Z,15.80
2018-05-15T05:47:43.182Z,15.80
2018-05-15T05:56:11.210Z,16.70
2018-05-15T06:01:34.468Z,17.00
2018-05-15T06:06:55.116Z,17.00
2018-05-15T06:09:23.349Z,17.60
2018-05-15T06:12:06.750Z,17.60
2018-05-15T06:14:34.984Z,18.40
2018-05-15T06:17:02.483Z,18.30
2018-05-15T06:19:29.968Z,18.80
2018-05-15T06:21:57.432Z,18.80
2018-05-15T06:24:24.913Z,18.50
2018-05-15T06:26:52.370Z,18.10
2018-05-15T06:29:20.407Z,18.00
2018-05-15T06:31:48.643Z,17.70
2018-05-15T06:34:16.100Z,17.70
2018-05-15T06:36:43.638Z,17.70
2018-05-15T06:39:14.162Z,17.90
2018-05-15T06:41:41.602Z,17.90
2018-05-15T06:44:09.092Z,18.20
2018-05-15T06:46:36.564Z,18.30
2018-05-15T06:49:04.191Z,18.40
2018-05-15T06:51:32.428Z,18.80
2018-05-15T06:53:59.949Z,18.70
2018-05-15T06:56:27.414Z,19.10
2018-05-15T06:58:54.868Z,19.20
2018-05-15T07:01:22.892Z,19.30
2018-05-15T07:03:50.360Z,19.20
2018-05-15T07:06:17.821Z,19.10
2018-05-15T07:08:45.514Z,19.30
2018-05-15T07:11:12.970Z,19.50
2018-05-15T07:13:40.416Z,19.50
2018-05-15T07:16:07.909Z,19.30
2018-05-15T07:18:35.364Z,19.30
2018-05-15T07:21:02.840Z,19.60
2018-05-15T07:23:30.345Z,19.70
2018-05-15T07:25:57.842Z,20.00
2018-05-15T07:28:25.307Z,20.20
2018-05-15T07:30:52.795Z,20.50
2018-05-15T07:33:20.249Z,20.60
2018-05-15T07:35:47.755Z,20.80
2018-05-15T07:38:15.680Z,21.80
2018-05-15T07:40:43.274Z,22.10
2018-05-15T07:43:10.764Z,22.30
2018-05-15T07:45:38.319Z,22.90
2018-05-15T07:48:05.762Z,23.10
2018-05-15T07:50:34.003Z,23.50
2018-05-15T07:53:01.519Z,23.40
2018-05-15T07:55:28.994Z,23.30
2018-05-15T07:57:57.249Z,23.10
2018-05-15T08:00:24.937Z,23.00
2018-05-15T08:02:52.421Z,22.80
2018-05-15T08:05:19.884Z,22.30
2018-05-15T08:07:47.351Z,22.30
2018-05-15T08:10:14.824Z,22.30
2018-05-15T08:12:42.309Z,22.80
2018-05-15T08:15:09.774Z,22.80
2018-05-15T08:17:37.351Z,22.50
2018-05-15T08:20:04.819Z,22.60
2018-05-15T08:22:32.364Z,22.80
2018-05-15T08:24:59.746Z,22.50
2018-05-15T08:27:27.274Z,21.70
2018-05-15T08:29:54.737Z,21.60
2018-05-15T08:32:22.184Z,22.10
2018-05-15T08:34:49.663Z,23.30
2018-05-15T08:37:17.202Z,23.80
2018-05-15T08:39:44.634Z,25.00
2018-05-15T08:42:12.071Z,26.50
2018-05-15T08:44:39.551Z,25.80
2018-05-15T08:47:07.020Z,25.00
2018-05-15T08:49:34.570Z,25.20
2018-05-15T08:52:02.638Z,25.60
2018-05-15T08:54:30.910Z,26.00
2018-05-15T08:56:58.506Z,25.90
2018-05-15T08:59:26.996Z,26.50
2018-05-15T09:01:54.510Z,25.70
2018-05-15T09:04:22.720Z,25.90
2018-05-15T09:06:50.949Z,26.60
2018-05-15T09:09:18.418Z,26.60
2018-05-15T09:11:45.893Z,26.30
2018-05-15T09:14:13.428Z,26.80
2018-05-15T09:16:41.671Z,27.60
2018-05-15T09:19:15.003Z,27.60
2018-05-15T09:21:42.608Z,27.90
2018-05-15T09:24:10.800Z,27.40
2018-05-15T09:26:38.442Z,26.30
2018-05-15T09:29:06.417Z,26.20
2018-05-15T09:31:41.244Z,26.60
2018-05-15T09:34:09.949Z,26.50
2018-05-15T09:36:38.414Z,26.80
2018-05-15T09:39:05.916Z,26.20
2018-05-15T09:41:33.435Z,25.60
2018-05-15T09:44:00.889Z,25.10
2018-05-15T09:46:28.353Z,25.70
2018-05-15T09:48:55.864Z,26.30
2018-05-15T09:51:23.454Z,26.80
2018-05-15T09:53:50.890Z,27.30
2018-05-15T09:56:18.365Z,27.50
2018-05-15T09:58:45.886Z,27.20
2018-05-15T10:01:13.359Z,26.10
2018-05-15T10:03:41.613Z,26.90
2018-05-15T10:06:09.095Z,26.80
2018-05-15T10:08:36.606Z,27.10
2018-05-15T10:11:04.089Z,27.40
2018-05-15T10:13:32.475Z,27.10
2018-05-15T10:16:05.901Z,27.10
2018-05-15T10:18:38.568Z,27.60
2018-05-15T10:21:06.155Z,27.60
2018-05-15T10:23:33.669Z,27.40
2018-05-15T10:38:51.589Z,27.50
2018-05-15T10:41:19.049Z,26.30
2018-05-15T10:43:48.268Z,26.70
2018-05-15T10:46:19.411Z,26.70
2018-05-15T10:48:48.545Z,26.30
2018-05-15T11:00:59.846Z,26.30
2018-05-15T11:13:08.599Z,26.90
2018-05-15T11:15:36.096Z,26.80
2018-05-15T11:27:44.040Z,27.00
2018-05-15T11:30:15.966Z,27.00
2018-05-15T11:32:44.519Z,26.60
2018-05-15T11:35:15.919Z,26.40
2018-05-15T11:47:24.259Z,26.00
2018-05-15T11:49:52.383Z,23.80
2018-05-15T11:52:20.073Z,23.70
2018-05-15T11:54:50.899Z,23.70
2018-05-15T11:57:18.687Z,24.20
2018-05-15T11:59:46.282Z,24.40
2018-05-15T12:02:13.680Z,24.40
2018-05-15T12:04:41.175Z,24.90
2018-05-15T12:07:14.879Z,25.50
2018-05-15T12:09:43.406Z,25.80
2018-05-15T12:12:10.937Z,26.00
2018-05-15T12:14:38.850Z,26.10
2018-05-15T12:29:59.961Z,26.60
2018-05-15T12:45:18.628Z,25.80
2018-05-15T12:47:46.299Z,25.70
2018-05-15T12:50:13.784Z,25.90
2018-05-15T12:52:42.698Z,26.20
2018-05-15T12:55:11.008Z,26.60
2018-05-15T13:07:19.036Z,26.30
2018-05-15T13:09:47.476Z,25.40
2018-05-15T13:12:15.199Z,25.40
2018-05-15T13:14:44.582Z,25.20
2018-05-15T13:17:12.080Z,25.10
2018-05-15T13:19:39.618Z,24.60
2018-05-15T13:22:07.106Z,24.90
2018-05-15T13:24:35.382Z,25.20
2018-05-15T13:27:02.822Z,25.40
2018-05-15T13:29:31.291Z,25.70
2018-05-15T13:41:39.805Z,26.20
2018-05-15T13:44:11.172Z,26.20
2018-05-15T13:46:38.645Z,26.20
2018-05-15T14:01:56.797Z,25.80
2018-05-15T14:04:26.015Z,26.10
2018-05-15T14:06:54.464Z,26.20
2018-05-15T14:09:21.923Z,26.40
2018-05-15T14:21:29.734Z,26.60
2018-05-15T14:36:48.087Z,26.90
2018-05-15T14:39:17.791Z,26.00
2018-05-15T14:42:01.140Z,26.00
2018-05-15T14:44:29.696Z,25.70
2018-05-15T14:46:58.506Z,25.70
2018-05-15T14:49:26.774Z,25.40
2018-05-15T14:51:59.365Z,25.50
2018-05-15T14:54:27.731Z,25.70
2018-05-15T14:56:55.570Z,25.70
2018-05-15T15:12:13.304Z,25.50
2018-05-15T15:14:41.033Z,24.60
2018-05-15T15:17:08.591Z,24.60
2018-05-15T15:19:36.309Z,24.40
2018-05-15T15:22:03.808Z,24.30
2018-05-15T15:24:32.366Z,24.30
2018-05-15T15:27:01.080Z,24.10
2018-05-15T15:29:29.323Z,24.10
2018-05-15T15:31:56.848Z,24.10
2018-05-15T15:34:24.614Z,23.90
2018-05-15T15:36:53.164Z,24.00
2018-05-15T15:39:24.880Z,24.00
2018-05-15T15:41:53.944Z,23.80
2018-05-15T15:44:21.520Z,23.80
2018-05-15T15:46:53.451Z,23.70
2018-05-15T15:49:25.388Z,23.70
2018-05-15T15:51:52.892Z,24.10
2018-05-15T16:07:10.870Z,24.20
2018-05-15T16:09:38.348Z,23.50
2018-05-15T16:12:07.830Z,23.50
2018-05-15T16:14:35.302Z,23.30
2018-05-15T16:17:03.130Z,23.30
2018-05-15T16:19:30.709Z,23.30
2018-05-15T16:21:58.197Z,23.30
2018-05-15T16:24:25.805Z,23.30
2018-05-15T16:26:53.972Z,23.20
2018-05-15T16:29:21.508Z,23.10
2018-05-15T16:31:50.039Z,23.10
2018-05-15T16:34:17.547Z,22.80
2018-05-15T16:46:25.949Z,22.70
2018-05-15T16:48:53.446Z,22.70
2018-05-15T16:51:21.511Z,22.70
2018-05-15T16:53:49.911Z,22.60
2018-05-15T16:56:17.423Z,22.60
2018-05-15T16:58:44.985Z,22.60
2018-05-15T17:01:17.303Z,22.40
2018-05-15T17:03:45.370Z,22.50
2018-05-15T17:16:00.939Z,22.50
2018-05-15T17:18:29.446Z,22.30
2018-05-15T17:20:57.952Z,22.20
2018-05-15T17:23:30.138Z,22.10
2018-05-15T17:25:57.640Z,22.10
2018-05-15T17:28:29.308Z,22.30
2018-05-15T17:30:56.786Z,22.30
2018-05-15T17:43:04.503Z,22.30
2018-05-15T17:45:32.933Z,21.80
2018-05-15T17:57:41.310Z,21.80
2018-05-15T18:20:02.065Z,18.20
2018-05-15T18:22:34.064Z,18.20
2018-05-15T18:25:02.359Z,18.30
2018-05-15T18:27:30.703Z,18.20
2018-05-15T18:30:02.996Z,18.10
2018-05-15T18:32:30.468Z,18.00
2018-05-15T19:13:41.289Z,15.50
2018-05-15T19:16:12.805Z,15.60
2018-05-15T19:18:44.595Z,15.60
2018-05-15T19:21:12.918Z,15.40
2018-05-15T19:23:42.182Z,15.00
2018-05-15T19:26:09.882Z,15.00
2018-05-15T19:28:37.741Z,14.90
2018-05-15T19:31:16.514Z,14.80
2018-05-15T19:33:56.447Z,14.90
2018-05-15T19:36:32.243Z,15.00
2018-05-15T19:39:13.116Z,14.90
2018-05-15T19:44:08.470Z,14.80
2018-05-15T19:46:40.691Z,14.50
2018-05-15T19:49:08.686Z,14.60
2018-05-15T20:07:34.494Z,14.50
2018-05-15T21:38:33.692Z,14.90
2018-05-15T21:52:05.272Z,14.90
2018-05-15T23:14:32.273Z,14.70
2018-05-15T23:30:04.554Z,14.70
2018-05-15T23:35:10.895Z,14.60
2018-05-15T23:53:50.744Z,14.50
